sensor_id;sensor_type;location;lat;lon;timestamp;pressure;altitude;pressure_sealevel;temperature;humidity
59009;BME280;44794;42.652;23.318;2023-02-28T00:00:27;94770.72;;;6.53;100.00
59009;BME280;44794;42.652;23.318;2023-02-28T00:02:53;94772.88;;;6.45;100.00
59009;BME280;44794;42.652;23.318;2023-02-28T00:05:20;94780.38;;;6.50;100.00
59009;BME280;44794;42.652;23.318;2023-02-28T00:07:47;94764.97;;;6.48;100.00
59009;BME280;44794;42.652;23.318;2023-02-28T00:10:16;94773.13;;;6.56;100.00
59009;BME280;44794;42.652;23.318;2023-02-28T00:12:49;94772.28;;;6.56;100.00
59009;BME280;44794;42.652;23.318;2023-02-28T00:15:15;94775.22;;;6.50;100.00
59009;BME280;44794;42.652;23.318;2023-02-28T00:17:40;94783.69;;;6.52;100.00
59009;BME280;44794;42.652;23.318;2023-02-28T00:20:07;94792.34;;;6.51;100.00
59009;BME280;44794;42.652;23.318;2023-02-28T00:22:38;94783.03;;;6.48;100.00
59009;BME280;44794;42.652;23.318;2023-02-28T00:25:04;94791.59;;;6.49;100.00
59009;BME280;44794;42.652;23.318;2023-02-28T00:27:32;94788.72;;;6.55;100.00
59009;BME280;44794;42.652;23.318;2023-02-28T00:29:57;94786.94;;;6.55;100.00
59009;BME280;44794;42.652;23.318;2023-02-28T00:32:23;94786.94;;;6.55;100.00
59009;BME280;44794;42.652;23.318;2023-02-28T00:34:48;94783.19;;;6.61;100.00
59009;BME280;44794;42.652;23.318;2023-02-28T00:37:14;94788.84;;;6.67;100.00
59009;BME280;44794;42.652;23.318;2023-02-28T00:39:40;94791.16;;;6.71;100.00
59009;BME280;44794;42.652;23.318;2023-02-28T00:42:06;94788.41;;;6.74;100.00
59009;BME280;44794;42.652;23.318;2023-02-28T00:44:32;94794.53;;;6.58;100.00
59009;BME280;44794;42.652;23.318;2023-02-28T00:46:59;94793.00;;;6.54;100.00
59009;BME280;44794;42.652;23.318;2023-02-28T00:49:25;94800.69;;;6.40;100.00
59009;BME280;44794;42.652;23.318;2023-02-28T00:51:52;94806.84;;;6.38;100.00
59009;BME280;44794;42.652;23.318;2023-02-28T00:54:17;94807.84;;;6.20;100.00
59009;BME280;44794;42.652;23.318;2023-02-28T00:56:43;94788.84;;;6.21;100.00
59009;BME280;44794;42.652;23.318;2023-02-28T00:59:08;94793.63;;;6.13;100.00
59009;BME280;44794;42.652;23.318;2023-02-28T01:01:34;94799.84;;;6.09;100.00
59009;BME280;44794;42.652;23.318;2023-02-28T01:04:00;94786.38;;;6.04;100.00
59009;BME280;44794;42.652;23.318;2023-02-28T01:06:26;94790.34;;;5.94;100.00
59009;BME280;44794;42.652;23.318;2023-02-28T01:08:51;94790.56;;;5.90;100.00
59009;BME280;44794;42.652;23.318;2023-02-28T01:11:17;94783.38;;;5.96;100.00
59009;BME280;44794;42.652;23.318;2023-02-28T01:13:44;94779.97;;;5.96;100.00
59009;BME280;44794;42.652;23.318;2023-02-28T01:16:10;94775.63;;;5.81;100.00
59009;BME280;44794;42.652;23.318;2023-02-28T01:18:36;94771.13;;;5.84;100.00
59009;BME280;44794;42.652;23.318;2023-02-28T01:21:07;94775.41;;;5.68;100.00
59009;BME280;44794;42.652;23.318;2023-02-28T01:23:32;94764.84;;;5.57;100.00
59009;BME280;44794;42.652;23.318;2023-02-28T01:26:06;94765.22;;;5.50;100.00
59009;BME280;44794;42.652;23.318;2023-02-28T01:28:32;94750.91;;;5.44;100.00
59009;BME280;44794;42.652;23.318;2023-02-28T01:30:57;94749.84;;;5.48;100.00
59009;BME280;44794;42.652;23.318;2023-02-28T01:33:23;94754.34;;;5.60;100.00
59009;BME280;44794;42.652;23.318;2023-02-28T01:35:48;94754.22;;;5.63;100.00
59009;BME280;44794;42.652;23.318;2023-02-28T01:38:14;94746.28;;;5.66;100.00
59009;BME280;44794;42.652;23.318;2023-02-28T01:40:39;94752.06;;;5.71;100.00
59009;BME280;44794;42.652;23.318;2023-02-28T01:43:19;94752.44;;;5.81;100.00
59009;BME280;44794;42.652;23.318;2023-02-28T01:45:45;94753.44;;;5.78;100.00
59009;BME280;44794;42.652;23.318;2023-02-28T01:48:10;94756.91;;;5.77;100.00
59009;BME280;44794;42.652;23.318;2023-02-28T01:50:40;94759.25;;;5.82;100.00
59009;BME280;44794;42.652;23.318;2023-02-28T01:53:10;94760.22;;;5.79;100.00
59009;BME280;44794;42.652;23.318;2023-02-28T01:55:39;94755.34;;;5.90;100.00
59009;BME280;44794;42.652;23.318;2023-02-28T01:58:05;94759.41;;;5.94;100.00
59009;BME280;44794;42.652;23.318;2023-02-28T02:00:34;94762.91;;;5.93;100.00
59009;BME280;44794;42.652;23.318;2023-02-28T02:03:06;94765.19;;;5.99;100.00
59009;BME280;44794;42.652;23.318;2023-02-28T02:05:36;94751.34;;;6.00;100.00
59009;BME280;44794;42.652;23.318;2023-02-28T02:08:05;94766.91;;;5.98;100.00
59009;BME280;44794;42.652;23.318;2023-02-28T02:10:34;94758.94;;;6.03;100.00
59009;BME280;44794;42.652;23.318;2023-02-28T02:13:05;94752.38;;;6.13;100.00
59009;BME280;44794;42.652;23.318;2023-02-28T02:15:44;94753.28;;;6.12;100.00
59009;BME280;44794;42.652;23.318;2023-02-28T02:18:18;94748.94;;;6.12;100.00
59009;BME280;44794;42.652;23.318;2023-02-28T02:21:15;94752.63;;;6.08;100.00
59009;BME280;44794;42.652;23.318;2023-02-28T02:37:13;94757.25;;;6.17;100.00
59009;BME280;44794;42.652;23.318;2023-02-28T02:39:50;94762.84;;;6.10;100.00
59009;BME280;44794;42.652;23.318;2023-02-28T02:42:29;94766.91;;;6.14;100.00
59009;BME280;44794;42.652;23.318;2023-02-28T02:45:14;94763.25;;;6.18;100.00
59009;BME280;44794;42.652;23.318;2023-02-28T02:47:43;94774.38;;;6.18;100.00
59009;BME280;44794;42.652;23.318;2023-02-28T02:50:14;94768.56;;;6.15;100.00
59009;BME280;44794;42.652;23.318;2023-02-28T02:52:45;94766.75;;;6.01;100.00
59009;BME280;44794;42.652;23.318;2023-02-28T02:55:14;94775.72;;;5.95;100.00
59009;BME280;44794;42.652;23.318;2023-02-28T02:58:00;94777.78;;;5.88;100.00
59009;BME280;44794;42.652;23.318;2023-02-28T03:00:33;94775.06;;;5.74;100.00
59009;BME280;44794;42.652;23.318;2023-02-28T03:03:00;94787.50;;;5.83;100.00
59009;BME280;44794;42.652;23.318;2023-02-28T03:05:31;94780.22;;;5.91;100.00
59009;BME280;44794;42.652;23.318;2023-02-28T03:07:59;94783.78;;;6.04;100.00
59009;BME280;44794;42.652;23.318;2023-02-28T03:13:03;94791.94;;;6.12;100.00
59009;BME280;44794;42.652;23.318;2023-02-28T03:15:40;94790.72;;;6.19;100.00
59009;BME280;44794;42.652;23.318;2023-02-28T03:18:19;94797.53;;;6.20;100.00
59009;BME280;44794;42.652;23.318;2023-02-28T03:21:24;94805.56;;;6.14;100.00
59009;BME280;44794;42.652;23.318;2023-02-28T03:24:04;94801.59;;;6.08;100.00
59009;BME280;44794;42.652;23.318;2023-02-28T03:26:33;94806.31;;;6.00;100.00
59009;BME280;44794;42.652;23.318;2023-02-28T03:29:05;94807.91;;;6.03;100.00
59009;BME280;44794;42.652;23.318;2023-02-28T03:31:42;94815.53;;;5.89;100.00
59009;BME280;44794;42.652;23.318;2023-02-28T03:34:19;94816.28;;;5.91;100.00
59009;BME280;44794;42.652;23.318;2023-02-28T03:36:52;94813.28;;;5.98;100.00
59009;BME280;44794;42.652;23.318;2023-02-28T03:39:34;94807.81;;;6.04;100.00
59009;BME280;44794;42.652;23.318;2023-02-28T03:42:09;94808.47;;;6.08;100.00
59009;BME280;44794;42.652;23.318;2023-02-28T03:44:46;94812.16;;;6.04;100.00
59009;BME280;44794;42.652;23.318;2023-02-28T03:47:51;94816.31;;;6.06;100.00
59009;BME280;44794;42.652;23.318;2023-02-28T03:50:27;94818.78;;;6.08;100.00
59009;BME280;44794;42.652;23.318;2023-02-28T03:55:45;94814.41;;;6.25;100.00
59009;BME280;44794;42.652;23.318;2023-02-28T03:58:39;94817.41;;;6.18;100.00
59009;BME280;44794;42.652;23.318;2023-02-28T04:01:15;94822.72;;;6.15;100.00
59009;BME280;44794;42.652;23.318;2023-02-28T04:03:42;94824.13;;;6.05;100.00
59009;BME280;44794;42.652;23.318;2023-02-28T04:06:15;94826.94;;;6.00;100.00
59009;BME280;44794;42.652;23.318;2023-02-28T04:08:41;94827.41;;;5.92;100.00
59009;BME280;44794;42.652;23.318;2023-02-28T04:13:38;94826.75;;;5.88;100.00
59009;BME280;44794;42.652;23.318;2023-02-28T04:16:07;94819.19;;;5.85;100.00
59009;BME280;44794;42.652;23.318;2023-02-28T04:18:41;94812.69;;;5.78;100.00
59009;BME280;44794;42.652;23.318;2023-02-28T04:21:08;94821.00;;;5.83;100.00
59009;BME280;44794;42.652;23.318;2023-02-28T04:23:34;94816.63;;;5.85;100.00
59009;BME280;44794;42.652;23.318;2023-02-28T04:25:59;94815.94;;;5.82;100.00
59009;BME280;44794;42.652;23.318;2023-02-28T04:28:25;94819.59;;;5.93;100.00
59009;BME280;44794;42.652;23.318;2023-02-28T04:30:58;94814.78;;;5.87;100.00
59009;BME280;44794;42.652;23.318;2023-02-28T04:33:24;94809.13;;;5.81;100.00
59009;BME280;44794;42.652;23.318;2023-02-28T04:36:00;94819.09;;;5.87;100.00
59009;BME280;44794;42.652;23.318;2023-02-28T04:38:26;94817.44;;;5.86;100.00
59009;BME280;44794;42.652;23.318;2023-02-28T04:40:51;94827.97;;;5.81;100.00
59009;BME280;44794;42.652;23.318;2023-02-28T04:43:17;94827.22;;;5.79;100.00
59009;BME280;44794;42.652;23.318;2023-02-28T04:45:42;94832.59;;;5.75;100.00
59009;BME280;44794;42.652;23.318;2023-02-28T04:48:07;94835.03;;;5.78;100.00
59009;BME280;44794;42.652;23.318;2023-02-28T04:50:33;94839.38;;;5.77;100.00
59009;BME280;44794;42.652;23.318;2023-02-28T04:52:58;94838.81;;;5.71;100.00
59009;BME280;44794;42.652;23.318;2023-02-28T04:55:23;94854.13;;;5.74;100.00
59009;BME280;44794;42.652;23.318;2023-02-28T04:57:49;94857.41;;;5.77;100.00
59009;BME280;44794;42.652;23.318;2023-02-28T05:00:14;94855.31;;;5.84;100.00
59009;BME280;44794;42.652;23.318;2023-02-28T05:02:42;94864.25;;;5.94;100.00
59009;BME280;44794;42.652;23.318;2023-02-28T05:05:08;94866.94;;;5.92;100.00
59009;BME280;44794;42.652;23.318;2023-02-28T05:07:33;94864.16;;;5.95;100.00
59009;BME280;44794;42.652;23.318;2023-02-28T05:09:59;94857.03;;;6.00;100.00
59009;BME280;44794;42.652;23.318;2023-02-28T05:12:24;94866.28;;;6.04;100.00
59009;BME280;44794;42.652;23.318;2023-02-28T05:14:50;94872.03;;;6.09;100.00
59009;BME280;44794;42.652;23.318;2023-02-28T05:17:15;94868.84;;;6.04;100.00
59009;BME280;44794;42.652;23.318;2023-02-28T05:19:40;94870.97;;;6.13;100.00
59009;BME280;44794;42.652;23.318;2023-02-28T05:22:13;94874.22;;;6.16;100.00
59009;BME280;44794;42.652;23.318;2023-02-28T05:24:39;94876.13;;;6.13;100.00
59009;BME280;44794;42.652;23.318;2023-02-28T05:27:05;94890.34;;;6.20;100.00
59009;BME280;44794;42.652;23.318;2023-02-28T05:29:30;94890.94;;;6.25;100.00
59009;BME280;44794;42.652;23.318;2023-02-28T05:31:55;94908.66;;;6.31;100.00
59009;BME280;44794;42.652;23.318;2023-02-28T05:34:21;94912.81;;;6.33;100.00
59009;BME280;44794;42.652;23.318;2023-02-28T05:36:46;94912.44;;;6.41;100.00
59009;BME280;44794;42.652;23.318;2023-02-28T05:39:12;94911.69;;;6.39;100.00
59009;BME280;44794;42.652;23.318;2023-02-28T05:41:39;94913.16;;;6.43;100.00
59009;BME280;44794;42.652;23.318;2023-02-28T05:44:04;94923.81;;;6.52;100.00
59009;BME280;44794;42.652;23.318;2023-02-28T05:46:29;94927.75;;;6.59;100.00
59009;BME280;44794;42.652;23.318;2023-02-28T05:48:55;94931.09;;;6.61;100.00
59009;BME280;44794;42.652;23.318;2023-02-28T05:51:23;94941.41;;;6.61;100.00
59009;BME280;44794;42.652;23.318;2023-02-28T05:53:48;94951.63;;;6.63;100.00
59009;BME280;44794;42.652;23.318;2023-02-28T05:56:14;94953.63;;;6.58;100.00
59009;BME280;44794;42.652;23.318;2023-02-28T05:58:40;94953.50;;;6.61;100.00
59009;BME280;44794;42.652;23.318;2023-02-28T06:01:30;94957.13;;;6.57;100.00
59009;BME280;44794;42.652;23.318;2023-02-28T06:03:55;94958.03;;;6.56;100.00
59009;BME280;44794;42.652;23.318;2023-02-28T06:06:21;94961.63;;;6.53;100.00
59009;BME280;44794;42.652;23.318;2023-02-28T06:08:46;94961.56;;;6.55;100.00
59009;BME280;44794;42.652;23.318;2023-02-28T06:11:12;94966.28;;;6.47;100.00
59009;BME280;44794;42.652;23.318;2023-02-28T06:13:37;94962.63;;;6.51;100.00
59009;BME280;44794;42.652;23.318;2023-02-28T06:16:03;94956.97;;;6.44;100.00
59009;BME280;44794;42.652;23.318;2023-02-28T06:18:28;94958.78;;;6.42;100.00
59009;BME280;44794;42.652;23.318;2023-02-28T06:20:55;94951.81;;;6.60;100.00
59009;BME280;44794;42.652;23.318;2023-02-28T06:23:21;94950.41;;;6.69;100.00
59009;BME280;44794;42.652;23.318;2023-02-28T06:25:47;94953.59;;;6.74;100.00
59009;BME280;44794;42.652;23.318;2023-02-28T06:28:12;94956.31;;;6.87;100.00
59009;BME280;44794;42.652;23.318;2023-02-28T06:30:38;94962.50;;;7.00;100.00
59009;BME280;44794;42.652;23.318;2023-02-28T06:33:04;94976.06;;;7.19;100.00
59009;BME280;44794;42.652;23.318;2023-02-28T06:35:30;94985.97;;;7.26;100.00
59009;BME280;44794;42.652;23.318;2023-02-28T06:37:55;95002.13;;;7.30;100.00
59009;BME280;44794;42.652;23.318;2023-02-28T06:40:21;95013.41;;;7.44;100.00
59009;BME280;44794;42.652;23.318;2023-02-28T06:42:46;95020.97;;;7.47;100.00
59009;BME280;44794;42.652;23.318;2023-02-28T06:45:12;95030.97;;;7.53;100.00
59009;BME280;44794;42.652;23.318;2023-02-28T06:47:38;95032.81;;;7.51;100.00
59009;BME280;44794;42.652;23.318;2023-02-28T06:50:04;95036.78;;;7.56;100.00
59009;BME280;44794;42.652;23.318;2023-02-28T06:52:30;95045.81;;;7.65;100.00
59009;BME280;44794;42.652;23.318;2023-02-28T06:54:56;95048.31;;;7.66;100.00
59009;BME280;44794;42.652;23.318;2023-02-28T06:57:31;95068.16;;;7.66;100.00
59009;BME280;44794;42.652;23.318;2023-02-28T07:00:01;95064.91;;;7.62;100.00
59009;BME280;44794;42.652;23.318;2023-02-28T07:02:28;95057.91;;;7.49;100.00
59009;BME280;44794;42.652;23.318;2023-02-28T07:04:53;95055.06;;;7.38;100.00
59009;BME280;44794;42.652;23.318;2023-02-28T07:07:19;95048.97;;;7.39;100.00
59009;BME280;44794;42.652;23.318;2023-02-28T07:09:44;95047.81;;;7.44;100.00
59009;BME280;44794;42.652;23.318;2023-02-28T07:12:10;95047.41;;;7.52;100.00
59009;BME280;44794;42.652;23.318;2023-02-28T07:14:36;95054.97;;;7.55;100.00
59009;BME280;44794;42.652;23.318;2023-02-28T07:17:02;95051.47;;;7.56;100.00
59009;BME280;44794;42.652;23.318;2023-02-28T07:19:28;95051.63;;;7.53;100.00
59009;BME280;44794;42.652;23.318;2023-02-28T07:21:53;95045.91;;;7.33;100.00
59009;BME280;44794;42.652;23.318;2023-02-28T07:24:19;95049.47;;;7.45;100.00
59009;BME280;44794;42.652;23.318;2023-02-28T07:26:44;95048.13;;;7.54;100.00
59009;BME280;44794;42.652;23.318;2023-02-28T07:29:10;95049.97;;;7.67;100.00
59009;BME280;44794;42.652;23.318;2023-02-28T07:31:35;95041.78;;;7.75;100.00
59009;BME280;44794;42.652;23.318;2023-02-28T07:34:00;95044.34;;;7.90;100.00
59009;BME280;44794;42.652;23.318;2023-02-28T07:36:27;95052.16;;;8.04;100.00
59009;BME280;44794;42.652;23.318;2023-02-28T07:38:53;95063.19;;;8.08;100.00
59009;BME280;44794;42.652;23.318;2023-02-28T07:41:20;95067.56;;;8.21;100.00
59009;BME280;44794;42.652;23.318;2023-02-28T07:43:46;95069.19;;;8.37;100.00
59009;BME280;44794;42.652;23.318;2023-02-28T07:46:14;95075.84;;;8.27;100.00
59009;BME280;44794;42.652;23.318;2023-02-28T07:48:44;95065.34;;;8.15;100.00
59009;BME280;44794;42.652;23.318;2023-02-28T07:51:10;95061.94;;;8.15;100.00
59009;BME280;44794;42.652;23.318;2023-02-28T07:53:35;95057.91;;;8.09;100.00
59009;BME280;44794;42.652;23.318;2023-02-28T07:56:02;95053.34;;;7.99;100.00
59009;BME280;44794;42.652;23.318;2023-02-28T07:58:28;95049.09;;;7.98;100.00
59009;BME280;44794;42.652;23.318;2023-02-28T08:00:55;95049.25;;;7.95;100.00
59009;BME280;44794;42.652;23.318;2023-02-28T08:03:22;95054.09;;;8.01;100.00
59009;BME280;44794;42.652;23.318;2023-02-28T08:05:48;95049.22;;;8.10;100.00
59009;BME280;44794;42.652;23.318;2023-02-28T08:08:15;95050.81;;;8.13;100.00
59009;BME280;44794;42.652;23.318;2023-02-28T08:10:41;95057.63;;;8.29;100.00
59009;BME280;44794;42.652;23.318;2023-02-28T08:13:06;95050.84;;;8.56;100.00
59009;BME280;44794;42.652;23.318;2023-02-28T08:15:32;95050.41;;;8.77;100.00
59009;BME280;44794;42.652;23.318;2023-02-28T08:17:57;95055.50;;;8.93;100.00
59009;BME280;44794;42.652;23.318;2023-02-28T08:20:24;95069.28;;;9.07;100.00
59009;BME280;44794;42.652;23.318;2023-02-28T08:22:50;95075.75;;;9.14;100.00
59009;BME280;44794;42.652;23.318;2023-02-28T08:25:16;95076.66;;;9.27;100.00
59009;BME280;44794;42.652;23.318;2023-02-28T08:27:41;95087.34;;;9.22;100.00
59009;BME280;44794;42.652;23.318;2023-02-28T08:30:09;95086.69;;;9.19;100.00
59009;BME280;44794;42.652;23.318;2023-02-28T08:32:35;95084.16;;;9.17;100.00
59009;BME280;44794;42.652;23.318;2023-02-28T08:35:00;95092.59;;;9.35;100.00
59009;BME280;44794;42.652;23.318;2023-02-28T08:37:26;95089.34;;;9.17;100.00
59009;BME280;44794;42.652;23.318;2023-02-28T08:39:52;95088.53;;;9.31;100.00
59009;BME280;44794;42.652;23.318;2023-02-28T08:42:17;95094.63;;;9.30;100.00
59009;BME280;44794;42.652;23.318;2023-02-28T08:44:43;95087.13;;;8.97;100.00
59009;BME280;44794;42.652;23.318;2023-02-28T08:47:08;95076.75;;;8.70;100.00
59009;BME280;44794;42.652;23.318;2023-02-28T08:49:34;95079.16;;;8.73;100.00
59009;BME280;44794;42.652;23.318;2023-02-28T08:51:59;95072.50;;;8.69;100.00
59009;BME280;44794;42.652;23.318;2023-02-28T08:54:24;95079.19;;;8.87;100.00
59009;BME280;44794;42.652;23.318;2023-02-28T08:56:50;95077.25;;;8.90;100.00
59009;BME280;44794;42.652;23.318;2023-02-28T08:59:15;95080.84;;;9.01;100.00
59009;BME280;44794;42.652;23.318;2023-02-28T09:01:41;95088.03;;;8.83;100.00
59009;BME280;44794;42.652;23.318;2023-02-28T09:04:09;95085.91;;;8.75;100.00
59009;BME280;44794;42.652;23.318;2023-02-28T09:06:36;95086.69;;;8.91;100.00
59009;BME280;44794;42.652;23.318;2023-02-28T09:09:01;95078.81;;;9.06;100.00
59009;BME280;44794;42.652;23.318;2023-02-28T09:11:29;95079.47;;;9.10;100.00
59009;BME280;44794;42.652;23.318;2023-02-28T09:13:54;95082.44;;;9.18;100.00
59009;BME280;44794;42.652;23.318;2023-02-28T09:16:23;95083.72;;;9.11;100.00
59009;BME280;44794;42.652;23.318;2023-02-28T09:18:49;95079.25;;;9.27;100.00
59009;BME280;44794;42.652;23.318;2023-02-28T09:21:16;95090.25;;;9.44;100.00
59009;BME280;44794;42.652;23.318;2023-02-28T09:23:43;95094.78;;;9.55;100.00
59009;BME280;44794;42.652;23.318;2023-02-28T09:26:17;95090.84;;;9.75;100.00
59009;BME280;44794;42.652;23.318;2023-02-28T09:28:43;95102.00;;;9.64;98.38
59009;BME280;44794;42.652;23.318;2023-02-28T09:31:13;95096.13;;;9.74;98.42
59009;BME280;44794;42.652;23.318;2023-02-28T09:33:39;95096.34;;;10.11;98.12
59009;BME280;44794;42.652;23.318;2023-02-28T09:36:05;95096.19;;;10.65;96.88
59009;BME280;44794;42.652;23.318;2023-02-28T09:38:30;95095.81;;;11.09;94.24
59009;BME280;44794;42.652;23.318;2023-02-28T09:40:59;95114.63;;;11.12;91.77
59009;BME280;44794;42.652;23.318;2023-02-28T09:43:29;95107.66;;;11.62;90.65
59009;BME280;44794;42.652;23.318;2023-02-28T09:48:39;95121.47;;;11.75;87.02
59009;BME280;44794;42.652;23.318;2023-02-28T09:51:28;95113.34;;;11.80;87.12
59009;BME280;44794;42.652;23.318;2023-02-28T09:53:56;95105.38;;;11.45;88.32
59009;BME280;44794;42.652;23.318;2023-02-28T09:56:41;95098.94;;;11.14;88.88
59009;BME280;44794;42.652;23.318;2023-02-28T10:01:57;95095.06;;;11.31;91.05
59009;BME280;44794;42.652;23.318;2023-02-28T10:10:21;95087.59;;;11.27;89.95
59009;BME280;44794;42.652;23.318;2023-02-28T10:12:48;95088.63;;;11.37;90.77
59009;BME280;44794;42.652;23.318;2023-02-28T10:15:17;95086.34;;;11.32;90.17
59009;BME280;44794;42.652;23.318;2023-02-28T10:17:48;95077.50;;;11.22;90.78
59009;BME280;44794;42.652;23.318;2023-02-28T10:20:21;95081.44;;;11.40;90.70
59009;BME280;44794;42.652;23.318;2023-02-28T10:25:37;95078.22;;;12.21;87.65
59009;BME280;44794;42.652;23.318;2023-02-28T10:28:16;95081.25;;;12.15;87.01
59009;BME280;44794;42.652;23.318;2023-02-28T10:30:53;95080.44;;;11.91;85.63
59009;BME280;44794;42.652;23.318;2023-02-28T10:33:31;95074.19;;;11.94;85.73
59009;BME280;44794;42.652;23.318;2023-02-28T10:35:58;95072.50;;;12.39;85.62
59009;BME280;44794;42.652;23.318;2023-02-28T10:38:26;95067.72;;;12.57;83.81
59009;BME280;44794;42.652;23.318;2023-02-28T10:41:07;95067.00;;;12.55;83.52
59009;BME280;44794;42.652;23.318;2023-02-28T10:43:33;95058.25;;;13.01;82.55
59009;BME280;44794;42.652;23.318;2023-02-28T10:46:09;95055.59;;;12.45;82.13
59009;BME280;44794;42.652;23.318;2023-02-28T10:49:00;95051.13;;;12.23;82.93
59009;BME280;44794;42.652;23.318;2023-02-28T10:51:34;95047.81;;;11.98;84.17
59009;BME280;44794;42.652;23.318;2023-02-28T10:54:02;95046.34;;;12.17;84.60
59009;BME280;44794;42.652;23.318;2023-02-28T10:56:28;95038.78;;;12.14;84.22
59009;BME280;44794;42.652;23.318;2023-02-28T11:03:57;95036.28;;;12.36;83.37
59009;BME280;44794;42.652;23.318;2023-02-28T11:06:26;95029.75;;;12.31;82.86
59009;BME280;44794;42.652;23.318;2023-02-28T11:08:55;95021.69;;;11.99;83.79
59009;BME280;44794;42.652;23.318;2023-02-28T11:11:22;95014.31;;;11.94;84.70
59009;BME280;44794;42.652;23.318;2023-02-28T11:13:52;95019.34;;;12.42;84.43
59009;BME280;44794;42.652;23.318;2023-02-28T11:16:18;95016.25;;;12.26;83.38
59009;BME280;44794;42.652;23.318;2023-02-28T11:21:36;95016.16;;;12.15;82.34
59009;BME280;44794;42.652;23.318;2023-02-28T11:26:47;95006.88;;;12.00;84.32
59009;BME280;44794;42.652;23.318;2023-02-28T11:29:29;95003.00;;;11.46;85.13
59009;BME280;44794;42.652;23.318;2023-02-28T11:34:37;95006.22;;;11.62;86.42
59009;BME280;44794;42.652;23.318;2023-02-28T11:37:04;95005.16;;;11.65;85.36
59009;BME280;44794;42.652;23.318;2023-02-28T11:39:31;94999.31;;;11.74;84.92
59009;BME280;44794;42.652;23.318;2023-02-28T11:47:49;94990.44;;;11.40;87.46
59009;BME280;44794;42.652;23.318;2023-02-28T11:50:46;94985.41;;;11.50;87.65
59009;BME280;44794;42.652;23.318;2023-02-28T11:53:22;94979.97;;;11.65;86.69
59009;BME280;44794;42.652;23.318;2023-02-28T12:04:32;94988.56;;;12.36;83.61
59009;BME280;44794;42.652;23.318;2023-02-28T12:07:20;94987.88;;;12.10;83.03
59009;BME280;44794;42.652;23.318;2023-02-28T12:15:23;94990.28;;;12.24;83.42
59009;BME280;44794;42.652;23.318;2023-02-28T12:21:23;94988.41;;;12.26;81.90
59009;BME280;44794;42.652;23.318;2023-02-28T12:29:24;94995.94;;;12.18;80.34
59009;BME280;44794;42.652;23.318;2023-02-28T12:32:29;94995.69;;;12.10;81.39
59009;BME280;44794;42.652;23.318;2023-02-28T12:35:03;94989.69;;;12.21;81.80
59009;BME280;44794;42.652;23.318;2023-02-28T12:38:08;94991.94;;;12.25;81.74
59009;BME280;44794;42.652;23.318;2023-02-28T12:40:45;94981.88;;;12.21;81.87
59009;BME280;44794;42.652;23.318;2023-02-28T12:43:15;94983.56;;;11.98;81.92
59009;BME280;44794;42.652;23.318;2023-02-28T12:45:51;94991.06;;;12.14;82.01
59009;BME280;44794;42.652;23.318;2023-02-28T12:48:24;94987.06;;;11.63;83.62
59009;BME280;44794;42.652;23.318;2023-02-28T12:50:51;94983.13;;;11.58;84.23
59009;BME280;44794;42.652;23.318;2023-02-28T12:53:28;94982.13;;;11.71;83.90
59009;BME280;44794;42.652;23.318;2023-02-28T12:56:09;94970.94;;;11.82;83.11
59009;BME280;44794;42.652;23.318;2023-02-28T12:58:43;94977.59;;;11.86;82.74
59009;BME280;44794;42.652;23.318;2023-02-28T13:03:51;94976.69;;;11.98;82.22
59009;BME280;44794;42.652;23.318;2023-02-28T13:09:15;94979.97;;;12.12;81.33
59009;BME280;44794;42.652;23.318;2023-02-28T13:11:52;94983.00;;;12.29;81.64
59009;BME280;44794;42.652;23.318;2023-02-28T13:19:33;94980.34;;;11.95;81.13
59009;BME280;44794;42.652;23.318;2023-02-28T13:22:00;94985.59;;;12.06;81.05
59009;BME280;44794;42.652;23.318;2023-02-28T13:24:36;94972.75;;;11.92;80.50
59009;BME280;44794;42.652;23.318;2023-02-28T13:39:54;94972.72;;;11.58;80.08
59009;BME280;44794;42.652;23.318;2023-02-28T13:42:35;94965.25;;;11.77;79.96
59009;BME280;44794;42.652;23.318;2023-02-28T13:47:33;94972.50;;;11.61;80.43
59009;BME280;44794;42.652;23.318;2023-02-28T13:52:52;94961.25;;;11.60;80.30
59009;BME280;44794;42.652;23.318;2023-02-28T13:56:28;94962.31;;;11.45;80.44
59009;BME280;44794;42.652;23.318;2023-02-28T14:01:30;94955.63;;;11.66;80.69
59009;BME280;44794;42.652;23.318;2023-02-28T14:06:32;94949.34;;;11.69;80.84
59009;BME280;44794;42.652;23.318;2023-02-28T14:11:41;94953.44;;;11.24;82.81
59009;BME280;44794;42.652;23.318;2023-02-28T14:14:09;94961.34;;;11.23;82.94
59009;BME280;44794;42.652;23.318;2023-02-28T14:16:44;94950.63;;;10.92;83.29
59009;BME280;44794;42.652;23.318;2023-02-28T14:19:24;94946.84;;;11.08;84.42
59009;BME280;44794;42.652;23.318;2023-02-28T14:25:18;94949.50;;;11.19;84.58
59009;BME280;44794;42.652;23.318;2023-02-28T14:36:16;94947.91;;;10.81;84.90
59009;BME280;44794;42.652;23.318;2023-02-28T14:38:51;94950.44;;;10.82;85.04
59009;BME280;44794;42.652;23.318;2023-02-28T14:41:37;94946.66;;;10.86;85.67
59009;BME280;44794;42.652;23.318;2023-02-28T14:44:24;94951.44;;;10.92;85.61
59009;BME280;44794;42.652;23.318;2023-02-28T14:47:01;94950.00;;;10.76;86.30
59009;BME280;44794;42.652;23.318;2023-02-28T14:49:44;94948.34;;;10.75;86.81
59009;BME280;44794;42.652;23.318;2023-02-28T14:54:52;94946.47;;;10.64;87.29
59009;BME280;44794;42.652;23.318;2023-02-28T14:57:27;94943.56;;;10.56;87.73
59009;BME280;44794;42.652;23.318;2023-02-28T15:03:27;94943.38;;;10.35;89.03
59009;BME280;44794;42.652;23.318;2023-02-28T15:05:58;94939.44;;;10.29;89.70
59009;BME280;44794;42.652;23.318;2023-02-28T15:08:24;94931.63;;;10.29;90.19
59009;BME280;44794;42.652;23.318;2023-02-28T15:11:16;94938.59;;;10.16;90.66
59009;BME280;44794;42.652;23.318;2023-02-28T15:13:53;94931.19;;;10.10;91.78
59009;BME280;44794;42.652;23.318;2023-02-28T15:16:41;94932.34;;;10.06;92.06